sensor_id;sensor_type;location;lat;lon;timestamp;pressure;altitude;pressure_sealevel;temperature;humidity
72308;BME280;60257;42.638;23.376;2023-08-06T00:02:23;93544.81;;;18.34;86.45
72308;BME280;60257;42.638;23.376;2023-08-06T00:04:49;93561.94;;;18.29;83.82
72308;BME280;60257;42.638;23.376;2023-08-06T00:07:14;93545.78;;;18.48;88.79
72308;BME280;60257;42.638;23.376;2023-08-06T00:09:40;93534.25;;;18.49;88.22
72308;BME280;60257;42.638;23.376;2023-08-06T00:12:06;93547.63;;;18.54;88.27
72308;BME280;60257;42.638;23.376;2023-08-06T00:14:31;93562.44;;;18.71;89.75
72308;BME280;60257;42.638;23.376;2023-08-06T00:16:56;93537.16;;;18.65;89.10
72308;BME280;60257;42.638;23.376;2023-08-06T00:19:22;93528.50;;;18.60;89.49
72308;BME280;60257;42.638;23.376;2023-08-06T00:21:48;93554.28;;;18.60;87.74
72308;BME280;60257;42.638;23.376;2023-08-06T00:24:13;93543.97;;;18.61;87.51
72308;BME280;60257;42.638;23.376;2023-08-06T00:26:39;93536.09;;;18.56;87.63
72308;BME280;60257;42.638;23.376;2023-08-06T00:29:07;93519.44;;;18.56;85.90
72308;BME280;60257;42.638;23.376;2023-08-06T00:31:33;93518.28;;;18.57;86.77
72308;BME280;60257;42.638;23.376;2023-08-06T00:33:58;93526.19;;;18.55;85.89
72308;BME280;60257;42.638;23.376;2023-08-06T00:36:24;93531.28;;;18.60;84.71
72308;BME280;60257;42.638;23.376;2023-08-06T00:38:49;93517.78;;;18.62;84.79
72308;BME280;60257;42.638;23.376;2023-08-06T00:41:15;93512.06;;;18.69;85.67
72308;BME280;60257;42.638;23.376;2023-08-06T00:43:40;93518.13;;;18.64;85.23
72308;BME280;60257;42.638;23.376;2023-08-06T00:46:06;93506.13;;;18.47;86.20
72308;BME280;60257;42.638;23.376;2023-08-06T00:48:32;93515.31;;;18.21;87.85
72308;BME280;60257;42.638;23.376;2023-08-06T00:50:58;93499.88;;;18.20;87.57
72308;BME280;60257;42.638;23.376;2023-08-06T00:53:23;93501.13;;;18.38;86.23
72308;BME280;60257;42.638;23.376;2023-08-06T00:55:50;93508.28;;;18.36;86.53
72308;BME280;60257;42.638;23.376;2023-08-06T00:58:16;93502.81;;;18.32;87.31
72308;BME280;60257;42.638;23.376;2023-08-06T01:00:42;93490.38;;;18.40;87.51
72308;BME280;60257;42.638;23.376;2023-08-06T01:03:07;93479.50;;;18.50;87.82
72308;BME280;60257;42.638;23.376;2023-08-06T01:05:33;93473.50;;;18.51;88.15
72308;BME280;60257;42.638;23.376;2023-08-06T01:13:47;93459.22;;;18.53;86.16
72308;BME280;60257;42.638;23.376;2023-08-06T01:16:19;93470.09;;;18.43;86.92
72308;BME280;60257;42.638;23.376;2023-08-06T01:18:47;93473.72;;;18.40;85.75
72308;BME280;60257;42.638;23.376;2023-08-06T01:21:15;93468.41;;;18.50;85.36
72308;BME280;60257;42.638;23.376;2023-08-06T01:23:42;93450.50;;;18.31;87.58
72308;BME280;60257;42.638;23.376;2023-08-06T01:29:09;93448.47;;;18.55;87.43
72308;BME280;60257;42.638;23.376;2023-08-06T01:31:38;93433.72;;;18.38;86.47
72308;BME280;60257;42.638;23.376;2023-08-06T01:34:07;93437.69;;;18.37;87.91
72308;BME280;60257;42.638;23.376;2023-08-06T01:36:35;93444.69;;;18.25;88.02
72308;BME280;60257;42.638;23.376;2023-08-06T01:39:01;93450.22;;;18.45;88.04
72308;BME280;60257;42.638;23.376;2023-08-06T01:41:27;93441.34;;;18.54;88.46
72308;BME280;60257;42.638;23.376;2023-08-06T01:43:52;93441.34;;;18.54;87.72
72308;BME280;60257;42.638;23.376;2023-08-06T01:46:18;93434.59;;;18.35;87.77
72308;BME280;60257;42.638;23.376;2023-08-06T01:48:43;93433.53;;;18.49;87.63
72308;BME280;60257;42.638;23.376;2023-08-06T01:51:09;93433.78;;;18.58;87.23
72308;BME280;60257;42.638;23.376;2023-08-06T01:53:34;93433.00;;;18.57;86.07
72308;BME280;60257;42.638;23.376;2023-08-06T01:56:03;93443.06;;;18.48;87.57
72308;BME280;60257;42.638;23.376;2023-08-06T01:58:28;93437.50;;;18.48;87.15
72308;BME280;60257;42.638;23.376;2023-08-06T02:00:54;93434.50;;;18.19;89.42
72308;BME280;60257;42.638;23.376;2023-08-06T02:03:19;93428.59;;;18.17;89.59
72308;BME280;60257;42.638;23.376;2023-08-06T02:05:45;93437.63;;;18.21;90.09
72308;BME280;60257;42.638;23.376;2023-08-06T02:08:11;93418.69;;;18.16;90.58
72308;BME280;60257;42.638;23.376;2023-08-06T02:10:36;93416.06;;;18.28;88.09
72308;BME280;60257;42.638;23.376;2023-08-06T02:13:01;93421.53;;;18.12;89.60
72308;BME280;60257;42.638;23.376;2023-08-06T02:15:27;93428.31;;;18.11;90.17
72308;BME280;60257;42.638;23.376;2023-08-06T02:17:52;93428.03;;;18.25;92.31
72308;BME280;60257;42.638;23.376;2023-08-06T02:20:18;93423.53;;;18.12;90.28
72308;BME280;60257;42.638;23.376;2023-08-06T02:22:43;93437.88;;;18.06;91.41
72308;BME280;60257;42.638;23.376;2023-08-06T02:25:09;93442.34;;;18.00;91.88
72308;BME280;60257;42.638;23.376;2023-08-06T02:27:34;93442.72;;;18.02;92.12
72308;BME280;60257;42.638;23.376;2023-08-06T02:29:59;93459.97;;;17.90;92.35
72308;BME280;60257;42.638;23.376;2023-08-06T02:32:26;93446.09;;;17.90;90.95
72308;BME280;60257;42.638;23.376;2023-08-06T02:34:51;93423.06;;;17.93;92.34
72308;BME280;60257;42.638;23.376;2023-08-06T02:37:16;93427.03;;;17.92;92.05
72308;BME280;60257;42.638;23.376;2023-08-06T02:39:42;93447.91;;;18.00;91.26
72308;BME280;60257;42.638;23.376;2023-08-06T02:42:08;93476.31;;;17.85;93.37
72308;BME280;60257;42.638;23.376;2023-08-06T02:44:34;93478.25;;;17.88;93.22
72308;BME280;60257;42.638;23.376;2023-08-06T02:47:00;93481.44;;;17.59;94.32
72308;BME280;60257;42.638;23.376;2023-08-06T02:49:26;93474.84;;;17.77;94.18
72308;BME280;60257;42.638;23.376;2023-08-06T02:51:51;93465.47;;;17.71;94.35
72308;BME280;60257;42.638;23.376;2023-08-06T02:54:18;93452.91;;;17.86;95.40
72308;BME280;60257;42.638;23.376;2023-08-06T02:56:44;93426.75;;;17.87;94.13
72308;BME280;60257;42.638;23.376;2023-08-06T02:59:13;93436.53;;;17.72;94.81
72308;BME280;60257;42.638;23.376;2023-08-06T03:01:39;93445.81;;;17.85;96.34
72308;BME280;60257;42.638;23.376;2023-08-06T03:04:05;93446.41;;;17.96;96.10
72308;BME280;60257;42.638;23.376;2023-08-06T03:06:30;93437.63;;;17.97;96.07
72308;BME280;60257;42.638;23.376;2023-08-06T03:08:56;93417.38;;;18.00;97.01
72308;BME280;60257;42.638;23.376;2023-08-06T03:11:21;93381.09;;;17.91;95.21
72308;BME280;60257;42.638;23.376;2023-08-06T03:13:47;93383.44;;;17.93;96.56
72308;BME280;60257;42.638;23.376;2023-08-06T03:16:13;93429.28;;;18.01;96.64
72308;BME280;60257;42.638;23.376;2023-08-06T03:18:39;93426.88;;;18.03;97.38
72308;BME280;60257;42.638;23.376;2023-08-06T03:21:04;93403.38;;;18.07;97.75
72308;BME280;60257;42.638;23.376;2023-08-06T03:23:30;93399.13;;;18.03;97.22
72308;BME280;60257;42.638;23.376;2023-08-06T03:25:55;93412.50;;;18.08;97.29
72308;BME280;60257;42.638;23.376;2023-08-06T03:28:21;93432.28;;;18.10;97.71
72308;BME280;60257;42.638;23.376;2023-08-06T03:30:47;93437.31;;;18.15;97.54
72308;BME280;60257;42.638;23.376;2023-08-06T03:33:13;93441.97;;;18.22;96.79
72308;BME280;60257;42.638;23.376;2023-08-06T03:35:39;93446.25;;;18.26;96.48
72308;BME280;60257;42.638;23.376;2023-08-06T03:38:04;93427.16;;;18.28;95.96
72308;BME280;60257;42.638;23.376;2023-08-06T03:40:29;93420.97;;;18.21;94.70
72308;BME280;60257;42.638;23.376;2023-08-06T03:42:55;93444.31;;;18.23;94.61
72308;BME280;60257;42.638;23.376;2023-08-06T03:45:20;93448.66;;;18.24;95.95
72308;BME280;60257;42.638;23.376;2023-08-06T03:47:46;93450.50;;;18.31;96.45
72308;BME280;60257;42.638;23.376;2023-08-06T03:50:11;93454.44;;;18.33;95.87
72308;BME280;60257;42.638;23.376;2023-08-06T03:52:37;93455.28;;;18.30;95.38
72308;BME280;60257;42.638;23.376;2023-08-06T03:55:02;93458.41;;;18.32;95.44
72308;BME280;60257;42.638;23.376;2023-08-06T03:57:28;93463.56;;;18.34;95.23
72308;BME280;60257;42.638;23.376;2023-08-06T03:59:53;93471.88;;;18.34;95.18
72308;BME280;60257;42.638;23.376;2023-08-06T04:02:19;93484.47;;;18.38;96.50
72308;BME280;60257;42.638;23.376;2023-08-06T04:04:44;93498.63;;;18.44;96.05
72308;BME280;60257;42.638;23.376;2023-08-06T04:07:10;93485.91;;;18.46;96.00
72308;BME280;60257;42.638;23.376;2023-08-06T04:09:51;93483.91;;;18.47;96.11
72308;BME280;60257;42.638;23.376;2023-08-06T04:12:17;93474.38;;;18.48;95.61
72308;BME280;60257;42.638;23.376;2023-08-06T04:14:42;93444.97;;;18.51;94.18
72308;BME280;60257;42.638;23.376;2023-08-06T04:17:08;93439.22;;;18.41;93.57
72308;BME280;60257;42.638;23.376;2023-08-06T04:19:33;93447.09;;;18.43;94.17
72308;BME280;60257;42.638;23.376;2023-08-06T04:21:58;93441.91;;;18.45;93.91
72308;BME280;60257;42.638;23.376;2023-08-06T04:24:24;93447.41;;;18.49;94.21
72308;BME280;60257;42.638;23.376;2023-08-06T04:26:49;93448.19;;;18.49;92.86
72308;BME280;60257;42.638;23.376;2023-08-06T04:29:15;93439.34;;;18.54;93.24
72308;BME280;60257;42.638;23.376;2023-08-06T04:31:40;93444.31;;;18.43;93.09
72308;BME280;60257;42.638;23.376;2023-08-06T04:34:06;93447.09;;;18.23;94.31
72308;BME280;60257;42.638;23.376;2023-08-06T04:36:33;93437.19;;;18.22;94.95
72308;BME280;60257;42.638;23.376;2023-08-06T04:38:58;93435.34;;;18.35;95.50
72308;BME280;60257;42.638;23.376;2023-08-06T04:41:23;93425.91;;;18.33;95.46
72308;BME280;60257;42.638;23.376;2023-08-06T04:43:49;93408.81;;;18.34;94.45
72308;BME280;60257;42.638;23.376;2023-08-06T04:46:14;93405.19;;;18.37;94.66
72308;BME280;60257;42.638;23.376;2023-08-06T04:48:40;93405.13;;;18.41;94.51
72308;BME280;60257;42.638;23.376;2023-08-06T04:51:05;93398.50;;;18.55;94.07
72308;BME280;60257;42.638;23.376;2023-08-06T04:53:31;93395.88;;;18.67;94.13
72308;BME280;60257;42.638;23.376;2023-08-06T04:55:56;93378.72;;;18.72;92.50
72308;BME280;60257;42.638;23.376;2023-08-06T04:58:21;93383.25;;;18.82;92.43
72308;BME280;60257;42.638;23.376;2023-08-06T05:00:47;93375.97;;;18.89;90.45
72308;BME280;60257;42.638;23.376;2023-08-06T05:03:12;93390.00;;;18.81;90.74
72308;BME280;60257;42.638;23.376;2023-08-06T05:05:40;93384.66;;;18.91;91.01
72308;BME280;60257;42.638;23.376;2023-08-06T05:08:06;93387.81;;;19.09;91.21
72308;BME280;60257;42.638;23.376;2023-08-06T05:10:31;93388.28;;;19.23;90.30
72308;BME280;60257;42.638;23.376;2023-08-06T05:12:56;93394.63;;;19.40;89.23
72308;BME280;60257;42.638;23.376;2023-08-06T05:15:22;93395.88;;;19.55;88.04
72308;BME280;60257;42.638;23.376;2023-08-06T05:17:50;93409.16;;;19.80;87.79
72308;BME280;60257;42.638;23.376;2023-08-06T05:20:16;93416.91;;;19.89;85.74
72308;BME280;60257;42.638;23.376;2023-08-06T05:22:42;93402.41;;;19.65;86.20
72308;BME280;60257;42.638;23.376;2023-08-06T05:25:08;93385.19;;;19.70;86.94
72308;BME280;60257;42.638;23.376;2023-08-06T05:27:33;93395.94;;;19.68;87.01
72308;BME280;60257;42.638;23.376;2023-08-06T05:29:59;93395.34;;;19.77;86.38
72308;BME280;60257;42.638;23.376;2023-08-06T05:32:24;93401.25;;;19.79;86.79
72308;BME280;60257;42.638;23.376;2023-08-06T05:34:50;93410.75;;;19.81;85.57
72308;BME280;60257;42.638;23.376;2023-08-06T05:37:15;93400.53;;;19.91;83.80
72308;BME280;60257;42.638;23.376;2023-08-06T05:39:41;93401.59;;;19.97;83.81
72308;BME280;60257;42.638;23.376;2023-08-06T05:42:07;93383.81;;;20.07;83.70
72308;BME280;60257;42.638;23.376;2023-08-06T05:44:32;93377.38;;;20.10;83.24
72308;BME280;60257;42.638;23.376;2023-08-06T05:46:58;93377.41;;;20.23;83.34
72308;BME280;60257;42.638;23.376;2023-08-06T05:49:24;93376.25;;;20.36;83.31
72308;BME280;60257;42.638;23.376;2023-08-06T05:51:49;93381.34;;;20.54;83.73
72308;BME280;60257;42.638;23.376;2023-08-06T05:54:15;93381.97;;;20.74;82.89
72308;BME280;60257;42.638;23.376;2023-08-06T05:56:40;93391.38;;;20.52;82.75
72308;BME280;60257;42.638;23.376;2023-08-06T05:59:06;93381.41;;;20.80;80.43
72308;BME280;60257;42.638;23.376;2023-08-06T06:01:31;93393.13;;;21.00;79.25
72308;BME280;60257;42.638;23.376;2023-08-06T06:03:57;93393.59;;;21.11;78.41
72308;BME280;60257;42.638;23.376;2023-08-06T06:06:22;93386.41;;;21.26;78.08
72308;BME280;60257;42.638;23.376;2023-08-06T06:08:48;93403.00;;;21.30;75.44
72308;BME280;60257;42.638;23.376;2023-08-06T06:11:13;93402.13;;;21.33;74.74
72308;BME280;60257;42.638;23.376;2023-08-06T06:13:38;93404.56;;;21.31;75.15
72308;BME280;60257;42.638;23.376;2023-08-06T06:16:04;93401.84;;;21.14;75.03
72308;BME280;60257;42.638;23.376;2023-08-06T06:18:30;93417.72;;;20.76;76.56
72308;BME280;60257;42.638;23.376;2023-08-06T06:20:56;93432.28;;;20.96;77.25
72308;BME280;60257;42.638;23.376;2023-08-06T06:23:21;93444.53;;;20.99;79.60
72308;BME280;60257;42.638;23.376;2023-08-06T06:25:48;93446.72;;;20.91;77.67
72308;BME280;60257;42.638;23.376;2023-08-06T06:28:14;93449.44;;;20.95;77.60
72308;BME280;60257;42.638;23.376;2023-08-06T06:30:41;93440.94;;;20.86;73.84
72308;BME280;60257;42.638;23.376;2023-08-06T06:33:07;93448.47;;;20.72;74.74
72308;BME280;60257;42.638;23.376;2023-08-06T06:35:32;93459.16;;;20.45;75.53
72308;BME280;60257;42.638;23.376;2023-08-06T06:37:58;93467.91;;;20.15;74.61
72308;BME280;60257;42.638;23.376;2023-08-06T06:40:23;93470.19;;;20.04;75.27
72308;BME280;60257;42.638;23.376;2023-08-06T06:42:48;93466.25;;;20.17;74.70
72308;BME280;60257;42.638;23.376;2023-08-06T06:45:14;93464.16;;;20.21;75.33
72308;BME280;60257;42.638;23.376;2023-08-06T06:47:39;93471.56;;;20.12;74.95
72308;BME280;60257;42.638;23.376;2023-08-06T06:50:05;93475.13;;;20.12;74.42
72308;BME280;60257;42.638;23.376;2023-08-06T06:52:31;93478.84;;;20.38;75.24
72308;BME280;60257;42.638;23.376;2023-08-06T06:54:56;93490.50;;;20.49;75.54
72308;BME280;60257;42.638;23.376;2023-08-06T06:57:22;93484.91;;;20.65;73.23
72308;BME280;60257;42.638;23.376;2023-08-06T06:59:47;93488.63;;;20.75;73.43
72308;BME280;60257;42.638;23.376;2023-08-06T07:02:13;93482.94;;;20.50;74.39
72308;BME280;60257;42.638;23.376;2023-08-06T07:04:38;93488.91;;;20.64;74.93
72308;BME280;60257;42.638;23.376;2023-08-06T07:07:04;93471.69;;;20.82;72.62
72308;BME280;60257;42.638;23.376;2023-08-06T07:09:30;93471.91;;;20.75;72.45
72308;BME280;60257;42.638;23.376;2023-08-06T07:11:55;93481.75;;;20.92;72.74
72308;BME280;60257;42.638;23.376;2023-08-06T07:14:20;93486.53;;;20.92;70.99
72308;BME280;60257;42.638;23.376;2023-08-06T07:16:46;93484.91;;;21.07;69.58
72308;BME280;60257;42.638;23.376;2023-08-06T07:19:11;93475.75;;;21.06;69.83
72308;BME280;60257;42.638;23.376;2023-08-06T07:21:37;93472.72;;;20.88;69.57
72308;BME280;60257;42.638;23.376;2023-08-06T07:24:02;93483.28;;;21.22;70.35
72308;BME280;60257;42.638;23.376;2023-08-06T07:26:28;93473.81;;;21.20;65.95
72308;BME280;60257;42.638;23.376;2023-08-06T07:28:53;93496.31;;;21.12;64.16
72308;BME280;60257;42.638;23.376;2023-08-06T07:31:19;93490.00;;;21.25;64.88
72308;BME280;60257;42.638;23.376;2023-08-06T07:33:44;93479.72;;;21.22;64.30
72308;BME280;60257;42.638;23.376;2023-08-06T07:36:12;93481.75;;;21.21;64.12
72308;BME280;60257;42.638;23.376;2023-08-06T07:38:38;93486.00;;;21.26;63.87
72308;BME280;60257;42.638;23.376;2023-08-06T07:41:04;93488.34;;;21.52;63.93
72308;BME280;60257;42.638;23.376;2023-08-06T07:43:30;93491.47;;;21.42;63.93
72308;BME280;60257;42.638;23.376;2023-08-06T07:45:59;93484.25;;;21.44;62.43
72308;BME280;60257;42.638;23.376;2023-08-06T07:48:26;93492.94;;;21.59;62.08
72308;BME280;60257;42.638;23.376;2023-08-06T07:50:52;93497.41;;;21.44;60.78
72308;BME280;60257;42.638;23.376;2023-08-06T07:53:23;93496.94;;;21.33;60.18
72308;BME280;60257;42.638;23.376;2023-08-06T07:55:52;93495.84;;;21.56;62.17
72308;BME280;60257;42.638;23.376;2023-08-06T07:58:19;93489.50;;;21.68;62.37
72308;BME280;60257;42.638;23.376;2023-08-06T08:00:45;93488.59;;;21.58;61.83
72308;BME280;60257;42.638;23.376;2023-08-06T08:03:15;93480.91;;;21.75;59.83
72308;BME280;60257;42.638;23.376;2023-08-06T08:05:41;93491.50;;;21.80;60.71
72308;BME280;60257;42.638;23.376;2023-08-06T08:08:07;93488.13;;;21.85;60.74
72308;BME280;60257;42.638;23.376;2023-08-06T08:10:33;93470.06;;;22.02;60.12
72308;BME280;60257;42.638;23.376;2023-08-06T08:13:00;93490.69;;;21.92;59.16
72308;BME280;60257;42.638;23.376;2023-08-06T08:15:28;93479.44;;;21.96;60.09
72308;BME280;60257;42.638;23.376;2023-08-06T08:17:53;93482.09;;;21.86;60.17
72308;BME280;60257;42.638;23.376;2023-08-06T08:20:19;93488.94;;;22.11;60.38
72308;BME280;60257;42.638;23.376;2023-08-06T08:22:44;93487.56;;;22.28;59.25
72308;BME280;60257;42.638;23.376;2023-08-06T08:25:10;93491.13;;;22.29;58.69
72308;BME280;60257;42.638;23.376;2023-08-06T08:27:35;93490.16;;;22.10;57.45
72308;BME280;60257;42.638;23.376;2023-08-06T08:30:01;93483.69;;;22.00;59.14
72308;BME280;60257;42.638;23.376;2023-08-06T08:32:26;93491.47;;;21.93;58.37
72308;BME280;60257;42.638;23.376;2023-08-06T08:34:52;93491.97;;;22.04;59.12
72308;BME280;60257;42.638;23.376;2023-08-06T08:37:18;93494.72;;;22.16;58.02
72308;BME280;60257;42.638;23.376;2023-08-06T08:39:44;93491.16;;;22.16;57.86
72308;BME280;60257;42.638;23.376;2023-08-06T08:42:10;93490.56;;;22.34;57.61
72308;BME280;60257;42.638;23.376;2023-08-06T08:44:35;93484.78;;;22.28;56.85
72308;BME280;60257;42.638;23.376;2023-08-06T08:47:06;93479.38;;;22.34;56.75
72308;BME280;60257;42.638;23.376;2023-08-06T08:49:31;93487.13;;;22.30;56.13
72308;BME280;60257;42.638;23.376;2023-08-06T08:51:59;93476.50;;;22.37;56.48
72308;BME280;60257;42.638;23.376;2023-08-06T08:54:27;93483.41;;;22.33;56.52
72308;BME280;60257;42.638;23.376;2023-08-06T08:56:56;93470.66;;;22.32;57.20
72308;BME280;60257;42.638;23.376;2023-08-06T08:59:22;93464.97;;;22.35;56.06
72308;BME280;60257;42.638;23.376;2023-08-06T09:01:48;93470.31;;;22.42;56.41
72308;BME280;60257;42.638;23.376;2023-08-06T09:04:17;93470.25;;;22.68;56.04
72308;BME280;60257;42.638;23.376;2023-08-06T09:06:46;93463.38;;;22.47;55.76
72308;BME280;60257;42.638;23.376;2023-08-06T09:09:14;93461.19;;;22.76;57.73
72308;BME280;60257;42.638;23.376;2023-08-06T09:11:44;93461.19;;;22.76;58.36
72308;BME280;60257;42.638;23.376;2023-08-06T09:14:11;93454.81;;;22.97;56.70
72308;BME280;60257;42.638;23.376;2023-08-06T09:16:37;93457.50;;;23.32;55.51
72308;BME280;60257;42.638;23.376;2023-08-06T09:19:10;93462.31;;;23.53;55.53
72308;BME280;60257;42.638;23.376;2023-08-06T09:21:41;93425.88;;;23.75;55.39
72308;BME280;60257;42.638;23.376;2023-08-06T09:24:11;93443.38;;;24.06;54.71
72308;BME280;60257;42.638;23.376;2023-08-06T09:26:38;93447.66;;;23.80;53.15
72308;BME280;60257;42.638;23.376;2023-08-06T09:29:09;93446.16;;;23.97;54.57
72308;BME280;60257;42.638;23.376;2023-08-06T09:31:43;93440.56;;;23.57;51.65
72308;BME280;60257;42.638;23.376;2023-08-06T09:34:15;93445.50;;;23.84;51.48
72308;BME280;60257;42.638;23.376;2023-08-06T09:36:51;93435.34;;;23.68;50.14
72308;BME280;60257;42.638;23.376;2023-08-06T09:39:28;93435.25;;;23.90;50.27
72308;BME280;60257;42.638;23.376;2023-08-06T09:41:58;93425.09;;;23.74;48.77
72308;BME280;60257;42.638;23.376;2023-08-06T09:44:26;93429.97;;;23.92;49.61
72308;BME280;60257;42.638;23.376;2023-08-06T09:46:53;93429.06;;;24.04;49.02
72308;BME280;60257;42.638;23.376;2023-08-06T09:49:21;93432.97;;;24.07;48.33
72308;BME280;60257;42.638;23.376;2023-08-06T09:51:47;93435.56;;;23.92;48.59
72308;BME280;60257;42.638;23.376;2023-08-06T09:54:16;93452.50;;;23.89;48.15
72308;BME280;60257;42.638;23.376;2023-08-06T09:56:43;93443.75;;;23.77;48.75
72308;BME280;60257;42.638;23.376;2023-08-06T09:59:09;93456.63;;;24.06;48.67
72308;BME280;60257;42.638;23.376;2023-08-06T10:01:36;93449.22;;;24.21;48.08
72308;BME280;60257;42.638;23.376;2023-08-06T10:04:04;93445.97;;;24.41;48.13
72308;BME280;60257;42.638;23.376;2023-08-06T10:06:31;93443.50;;;24.70;47.38
72308;BME280;60257;42.638;23.376;2023-08-06T10:08:58;93444.28;;;24.52;47.24
72308;BME280;60257;42.638;23.376;2023-08-06T10:11:24;93454.25;;;24.72;47.37
72308;BME280;60257;42.638;23.376;2023-08-06T10:14:00;93456.44;;;24.77;47.44
72308;BME280;60257;42.638;23.376;2023-08-06T10:16:27;93457.53;;;24.98;47.62
72308;BME280;60257;42.638;23.376;2023-08-06T10:18:54;93452.84;;;25.13;47.23
72308;BME280;60257;42.638;23.376;2023-08-06T10:21:20;93448.75;;;25.32;45.59
72308;BME280;60257;42.638;23.376;2023-08-06T10:23:53;93447.47;;;25.60;44.18
72308;BME280;60257;42.638;23.376;2023-08-06T10:26:20;93456.81;;;25.66;44.21
72308;BME280;60257;42.638;23.376;2023-08-06T10:28:45;93456.38;;;25.41;44.60
72308;BME280;60257;42.638;23.376;2023-08-06T10:31:11;93461.41;;;24.82;45.62
72308;BME280;60257;42.638;23.376;2023-08-06T10:33:44;93469.03;;;24.54;46.80
72308;BME280;60257;42.638;23.376;2023-08-06T10:36:10;93466.03;;;24.39;47.95
72308;BME280;60257;42.638;23.376;2023-08-06T10:38:48;93465.19;;;24.11;48.30
72308;BME280;60257;42.638;23.376;2023-08-06T10:41:27;93470.22;;;23.76;48.40
72308;BME280;60257;42.638;23.376;2023-08-06T10:44:05;93479.38;;;23.77;48.77
72308;BME280;60257;42.638;23.376;2023-08-06T10:46:32;93488.56;;;23.87;48.02
72308;BME280;60257;42.638;23.376;2023-08-06T10:48:58;93477.44;;;23.65;47.56
72308;BME280;60257;42.638;23.376;2023-08-06T10:51:23;93469.06;;;23.65;48.14
72308;BME280;60257;42.638;23.376;2023-08-06T10:53:50;93480.28;;;23.74;48.97
72308;BME280;60257;42.638;23.376;2023-08-06T10:56:20;93486.00;;;23.61;49.63
72308;BME280;60257;42.638;23.376;2023-08-06T10:58:48;93483.94;;;23.62;50.24
72308;BME280;60257;42.638;23.376;2023-08-06T11:01:14;93492.44;;;23.80;50.65
72308;BME280;60257;42.638;23.376;2023-08-06T11:03:41;93497.38;;;24.07;50.35
72308;BME280;60257;42.638;23.376;2023-08-06T11:06:07;93504.31;;;23.93;50.69
72308;BME280;60257;42.638;23.376;2023-08-06T11:08:34;93496.16;;;24.08;50.22
72308;BME280;60257;42.638;23.376;2023-08-06T11:11:11;93493.50;;;24.13;49.81
72308;BME280;60257;42.638;23.376;2023-08-06T11:13:47;93503.09;;;24.34;49.83
72308;BME280;60257;42.638;23.376;2023-08-06T11:16:15;93495.81;;;24.46;49.49
72308;BME280;60257;42.638;23.376;2023-08-06T11:18:41;93491.34;;;24.85;49.18
72308;BME280;60257;42.638;23.376;2023-08-06T11:21:07;93502.88;;;25.23;46.61
72308;BME280;60257;42.638;23.376;2023-08-06T11:23:34;93511.56;;;25.53;47.13
72308;BME280;60257;42.638;23.376;2023-08-06T11:25:59;93513.38;;;25.92;45.79
72308;BME280;60257;42.638;23.376;2023-08-06T11:28:25;93525.53;;;25.98;44.94
72308;BME280;60257;42.638;23.376;2023-08-06T11:30:51;93525.13;;;25.63;44.76
72308;BME280;60257;42.638;23.376;2023-08-06T11:33:23;93518.78;;;24.99;43.05
72308;BME280;60257;42.638;23.376;2023-08-06T11:35:51;93525.34;;;25.14;40.91
72308;BME280;60257;42.638;23.376;2023-08-06T11:38:16;93528.91;;;25.06;41.85
72308;BME280;60257;42.638;23.376;2023-08-06T11:40:44;93530.47;;;24.98;42.55
72308;BME280;60257;42.638;23.376;2023-08-06T11:43:12;93511.56;;;24.71;43.84
72308;BME280;60257;42.638;23.376;2023-08-06T11:45:37;93515.91;;;24.63;44.36
72308;BME280;60257;42.638;23.376;2023-08-06T11:48:03;93510.72;;;24.34;46.51
72308;BME280;60257;42.638;23.376;2023-08-06T11:50:29;93514.13;;;24.29;46.99
72308;BME280;60257;42.638;23.376;2023-08-06T11:52:59;93499.41;;;24.46;46.07
72308;BME280;60257;42.638;23.376;2023-08-06T11:55:26;93509.81;;;24.46;46.59
72308;BME280;60257;42.638;23.376;2023-08-06T11:57:53;93508.22;;;24.36;47.33
72308;BME280;60257;42.638;23.376;2023-08-06T12:00:19;93505.41;;;23.96;48.95
72308;BME280;60257;42.638;23.376;2023-08-06T12:02:48;93507.66;;;24.10;48.93
72308;BME280;60257;42.638;23.376;2023-08-06T12:05:18;93514.13;;;24.29;48.36
72308;BME280;60257;42.638;23.376;2023-08-06T12:07:54;93512.50;;;23.78;49.04
72308;BME280;60257;42.638;23.376;2023-08-06T12:10:21;93514.25;;;24.25;46.95
72308;BME280;60257;42.638;23.376;2023-08-06T12:12:47;93514.75;;;24.33;46.84
72308;BME280;60257;42.638;23.376;2023-08-06T12:15:13;93504.78;;;24.32;47.26
72308;BME280;60257;42.638;23.376;2023-08-06T12:17:39;93500.97;;;24.66;46.30
72308;BME280;60257;42.638;23.376;2023-08-06T12:20:06;93500.38;;;24.89;45.78
72308;BME280;60257;42.638;23.376;2023-08-06T12:22:33;93493.69;;;25.14;44.49
72308;BME280;60257;42.638;23.376;2023-08-06T12:25:02;93497.75;;;25.22;44.98
72308;BME280;60257;42.638;23.376;2023-08-06T12:27:29;93487.94;;;24.99;45.65
72308;BME280;60257;42.638;23.376;2023-08-06T12:29:54;93496.31;;;24.90;46.38
72308;BME280;60257;42.638;23.376;2023-08-06T12:32:20;93492.31;;;25.00;46.36
72308;BME280;60257;42.638;23.376;2023-08-06T12:34:47;93489.03;;;24.92;47.03
72308;BME280;60257;42.638;23.376;2023-08-06T12:37:12;93497.09;;;25.18;46.54
72308;BME280;60257;42.638;23.376;2023-08-06T12:39:38;93497.59;;;25.07;46.20
72308;BME280;60257;42.638;23.376;2023-08-06T12:42:05;93502.25;;;25.10;46.07
72308;BME280;60257;42.638;23.376;2023-08-06T12:44:31;93496.50;;;25.14;46.31
72308;BME280;60257;42.638;23.376;2023-08-06T12:46:57;93498.34;;;25.17;45.59
72308;BME280;60257;42.638;23.376;2023-08-06T12:49:23;93497.13;;;24.90;46.44
72308;BME280;60257;42.638;23.376;2023-08-06T12:51:49;93494.75;;;24.62;47.20
72308;BME280;60257;42.638;23.376;2023-08-06T12:54:18;93493.34;;;24.75;46.63
72308;BME280;60257;42.638;23.376;2023-08-06T12:56:47;93498.19;;;24.84;46.81